KGPT/GPT METAR and TAF weather

Enter ICAO airport designator
Station Type Date Time Source
KGPT METAR 2019/09/21 21:53 UTC NOAA

KGPT 212153Z 11014G22KT 10SM OVC085 29/21 A3011 RMK AO2 SLP194 T02890206


Station Type Date Time Source
KGPT Decoded METAR 2019/09/21 21:53 UTC NOAA

GULFPORT-BILOXI REG AIRPORT , MS, United States (KGPT) 30-25N 089-05W 14M
Sep 21, 2019 - 05:53 PM EDT / 2019.09.21 2153 UTC
Wind: from the ESE (110 degrees) at 16 MPH (14 KT) gusting to 25 MPH (22 KT):0
Visibility: 10 mile(s):0
Sky conditions: overcast
Temperature: 84.0 F (28.9 C)
Dew Point: 69.1 F (20.6 C)
Relative Humidity: 60%
Pressure (altimeter): 30.11 in. Hg (1019 hPa)
ob: KGPT 212153Z 11014G22KT 10SM OVC085 29/21 A3011 RMK AO2 SLP194 T02890206
cycle: 22

Station Type Date Time Source
KGPT TAF 2019/09/21 18:46 UTC NOAA

TAF KGPT 211744Z 2118/2218 11014KT P6SM VCSH FEW045 OVC050
FM212300 13009KT P6SM FEW030 SCT110
FM220500 11007KT P6SM FEW045 FEW250
FM221100 09006KT P6SM FEW025 FEW070
FM221600 13011KT P6SM FEW250

Example: see airport list